createdAt,value
2023-04-19T00:01:06.226Z,53.24
2023-04-19T00:03:33.752Z,53.39
2023-04-19T00:06:01.175Z,53.24
2023-04-19T00:08:28.433Z,53.39
2023-04-19T00:10:55.616Z,53.42
2023-04-19T00:13:22.924Z,53.40
2023-04-19T00:15:50.363Z,53.33
2023-04-19T00:18:17.580Z,53.38
2023-04-19T00:20:45.484Z,53.41
2023-04-19T00:23:12.700Z,53.45
2023-04-19T00:25:39.896Z,53.23
2023-04-19T00:28:07.062Z,53.37
2023-04-19T00:30:34.472Z,53.52
2023-04-19T00:33:01.751Z,53.51
2023-04-19T00:35:29.236Z,53.67
2023-04-19T00:37:56.441Z,53.48
2023-04-19T00:40:23.671Z,53.26
2023-04-19T00:42:50.831Z,53.55
2023-04-19T00:45:18.042Z,53.50
2023-04-19T00:47:45.302Z,53.14
2023-04-19T00:50:13.400Z,53.52
2023-04-19T00:52:41.145Z,53.28
2023-04-19T00:55:08.791Z,53.29
2023-04-19T00:57:36.498Z,53.29
2023-04-19T01:00:06.702Z,53.30
2023-04-19T01:02:34.019Z,53.64
2023-04-19T01:05:10.417Z,53.38
2023-04-19T01:07:37.668Z,53.24
2023-04-19T01:10:05.973Z,53.39
2023-04-19T01:12:33.267Z,53.40
2023-04-19T01:15:01.472Z,53.55
2023-04-19T01:17:30.159Z,53.36
2023-04-19T01:20:06.519Z,53.35
2023-04-19T01:22:34.160Z,53.31
2023-04-19T01:25:01.706Z,53.16
2023-04-19T01:27:28.987Z,53.27
2023-04-19T01:29:56.304Z,53.37
2023-04-19T01:32:23.604Z,53.36
2023-04-19T01:34:52.098Z,53.16
2023-04-19T01:37:19.296Z,53.35
2023-04-19T01:39:46.490Z,53.39
2023-04-19T01:42:13.807Z,53.43
2023-04-19T01:44:40.984Z,53.39
2023-04-19T01:47:08.363Z,53.35
2023-04-19T01:49:35.722Z,53.32
2023-04-19T01:52:03.009Z,53.50
2023-04-19T01:54:30.242Z,53.41
2023-04-19T01:56:57.405Z,53.14
2023-04-19T01:59:24.677Z,52.96
2023-04-19T02:01:51.974Z,53.12
2023-04-19T02:04:21.768Z,52.93
2023-04-19T02:06:49.106Z,52.90
2023-04-19T02:09:16.325Z,52.94
2023-04-19T02:11:43.502Z,53.26
2023-04-19T02:14:10.771Z,52.91
2023-04-19T02:16:38.046Z,53.00
2023-04-19T02:19:05.351Z,53.07
2023-04-19T02:21:32.576Z,52.84
2023-04-19T02:23:59.732Z,53.05
2023-04-19T02:26:26.999Z,52.82
2023-04-19T02:28:54.338Z,52.96
2023-04-19T02:31:21.788Z,53.10
2023-04-19T02:33:49.054Z,52.94
2023-04-19T02:36:16.295Z,53.20
2023-04-19T02:38:43.519Z,52.56
2023-04-19T02:41:10.807Z,52.84
2023-04-19T02:43:37.998Z,53.26
2023-04-19T02:46:05.348Z,52.80
2023-04-19T02:48:32.664Z,52.73
2023-04-19T02:50:59.906Z,53.04
2023-04-19T02:53:27.102Z,52.94
2023-04-19T02:55:54.330Z,52.82
2023-04-19T02:58:21.502Z,53.11
2023-04-19T03:00:48.708Z,52.96
2023-04-19T03:03:16.079Z,52.82
2023-04-19T03:05:43.313Z,52.90
2023-04-19T03:08:11.203Z,52.71
2023-04-19T03:10:38.531Z,52.70
2023-04-19T03:13:05.721Z,52.78
2023-04-19T03:15:32.920Z,52.93
2023-04-19T03:18:00.203Z,52.90
2023-04-19T03:20:27.420Z,52.57
2023-04-19T03:22:54.643Z,52.72
2023-04-19T03:25:21.974Z,52.65
2023-04-19T03:27:49.611Z,52.90
2023-04-19T03:30:16.798Z,52.94
2023-04-19T03:32:44.101Z,52.84
2023-04-19T03:35:11.391Z,52.81
2023-04-19T03:37:38.576Z,52.84
2023-04-19T03:40:06.673Z,52.78
2023-04-19T03:42:33.838Z,52.69
2023-04-19T03:45:06.511Z,52.75
2023-04-19T03:47:34.269Z,52.65
2023-04-19T03:50:02.506Z,52.46
2023-04-19T03:52:29.720Z,52.55
2023-04-19T03:54:56.884Z,52.43
2023-04-19T03:57:24.118Z,52.70
2023-04-19T03:59:51.365Z,52.61
2023-04-19T04:02:19.101Z,52.56
2023-04-19T04:04:46.616Z,52.57
2023-04-19T04:07:13.988Z,52.77
2023-04-19T04:09:41.185Z,52.82
2023-04-19T04:12:08.453Z,52.54
2023-04-19T04:14:35.845Z,52.69
2023-04-19T04:17:03.133Z,52.85
2023-04-19T04:19:30.514Z,52.66
2023-04-19T04:21:57.761Z,52.62
2023-04-19T04:24:24.984Z,52.53
2023-04-19T04:26:52.141Z,52.61
2023-04-19T04:29:19.313Z,52.29
2023-04-19T04:31:46.627Z,52.60
2023-04-19T04:34:14.360Z,52.51
2023-04-19T04:36:42.025Z,52.46
2023-04-19T04:39:11.881Z,52.64
2023-04-19T04:41:42.099Z,52.73
2023-04-19T04:44:12.720Z,52.41
2023-04-19T04:46:40.323Z,52.30
2023-04-19T04:49:07.539Z,52.46
2023-04-19T04:51:36.207Z,52.42
2023-04-19T04:54:05.170Z,52.52
2023-04-19T04:56:32.640Z,52.69
2023-04-19T04:58:59.853Z,51.39
2023-04-19T05:01:27.143Z,51.80
2023-04-19T05:03:54.459Z,51.45
2023-04-19T05:06:21.663Z,52.09
2023-04-19T05:08:48.849Z,52.30
2023-04-19T05:11:16.439Z,52.40
2023-04-19T05:13:46.030Z,52.66
2023-04-19T05:16:13.337Z,52.28
2023-04-19T05:18:40.696Z,52.10
2023-04-19T05:21:10.427Z,51.86
2023-04-19T05:23:38.691Z,51.30
2023-04-19T05:26:05.994Z,50.15
2023-04-19T05:28:33.535Z,49.85
2023-04-19T05:31:00.927Z,49.30
2023-04-19T05:33:28.187Z,49.09
2023-04-19T05:35:55.351Z,48.25
2023-04-19T05:38:22.874Z,47.59
2023-04-19T05:40:50.125Z,47.00
2023-04-19T05:43:17.311Z,46.15
2023-04-19T05:45:44.507Z,45.79
2023-04-19T05:48:11.720Z,45.87
2023-04-19T05:50:39.089Z,45.91
2023-04-19T05:53:06.282Z,45.69
2023-04-19T05:55:33.497Z,45.75
2023-04-19T05:58:00.864Z,45.50
2023-04-19T06:00:28.449Z,45.26
2023-04-19T06:02:55.768Z,44.75
2023-04-19T06:05:23.497Z,45.00
2023-04-19T06:07:55.483Z,45.01
2023-04-19T06:10:40.368Z,45.42
2023-04-19T06:13:16.553Z,45.94
2023-04-19T06:15:43.763Z,44.79
2023-04-19T06:18:19.556Z,44.53
2023-04-19T06:20:47.337Z,43.00
2023-04-19T06:23:15.294Z,42.98
2023-04-19T06:25:42.792Z,42.85
2023-04-19T06:28:12.145Z,42.26
2023-04-19T06:30:39.332Z,41.89
2023-04-19T06:33:06.486Z,42.90
2023-04-19T06:35:34.020Z,43.26
2023-04-19T06:38:01.304Z,43.21
2023-04-19T06:40:34.476Z,43.26
2023-04-19T06:43:01.767Z,43.63
2023-04-19T06:45:29.128Z,44.72
2023-04-19T06:47:56.532Z,44.69
2023-04-19T06:50:23.829Z,44.64
2023-04-19T06:52:51.054Z,44.73
2023-04-19T06:55:23.624Z,45.20
2023-04-19T06:57:50.816Z,45.21
2023-04-19T07:00:18.333Z,44.95
2023-04-19T07:02:45.772Z,45.29
2023-04-19T07:05:13.448Z,45.15
2023-04-19T07:07:41.328Z,45.11
2023-04-19T07:10:09.649Z,45.10
2023-04-19T07:12:39.818Z,45.13
2023-04-19T07:15:07.473Z,45.36
2023-04-19T07:17:36.214Z,45.39
2023-04-19T07:20:05.771Z,45.23
2023-04-19T07:22:33.565Z,45.40
2023-04-19T07:25:00.849Z,45.24
2023-04-19T07:27:28.153Z,45.41
2023-04-19T07:29:55.362Z,45.45
2023-04-19T07:32:22.649Z,45.35
2023-04-19T07:34:51.559Z,45.43
2023-04-19T07:37:18.837Z,45.41
2023-04-19T07:39:46.037Z,45.40
2023-04-19T07:42:13.268Z,45.50
2023-04-19T07:44:40.493Z,45.53
2023-04-19T07:47:07.725Z,45.46
2023-04-19T07:49:35.168Z,45.40
2023-04-19T07:52:03.019Z,45.33
2023-04-19T07:54:31.310Z,45.67
2023-04-19T07:56:59.083Z,45.64
2023-04-19T07:59:26.626Z,45.46
2023-04-19T08:01:54.007Z,45.33
2023-04-19T08:04:22.998Z,45.45
2023-04-19T08:06:53.372Z,45.66
2023-04-19T08:09:20.638Z,45.61
2023-04-19T08:11:47.934Z,45.44
2023-04-19T08:14:26.831Z,45.43
2023-04-19T08:17:22.116Z,45.48
2023-04-19T08:19:45.745Z,45.57
2023-04-19T08:22:13.018Z,45.45
2023-04-19T08:24:40.191Z,45.66
2023-04-19T08:27:07.383Z,45.50
2023-04-19T08:29:34.760Z,45.58
2023-04-19T08:32:02.093Z,45.51
2023-04-19T08:34:29.592Z,45.41
2023-04-19T08:37:04.029Z,45.71
2023-04-19T08:39:34.184Z,45.61
2023-04-19T08:42:11.098Z,45.53
2023-04-19T08:45:09.532Z,45.64
2023-04-19T08:50:20.571Z,45.63
2023-04-19T08:53:02.786Z,45.57
2023-04-19T08:55:47.328Z,45.62
2023-04-19T08:58:30.794Z,45.71
2023-04-19T09:01:12.859Z,45.49
2023-04-19T09:03:59.390Z,45.43
2023-04-19T09:06:31.323Z,45.46
2023-04-19T09:11:52.008Z,45.33
2023-04-19T09:14:21.053Z,45.58
2023-04-19T09:16:48.253Z,45.49
2023-04-19T09:19:24.255Z,45.47
2023-04-19T09:21:54.887Z,45.39
2023-04-19T09:25:13.904Z,45.35
2023-04-19T09:27:31.363Z,45.53
2023-04-19T09:30:00.632Z,45.30
2023-04-19T09:32:29.073Z,45.39
2023-04-19T09:34:58.582Z,45.49
2023-04-19T09:37:51.561Z,45.44
2023-04-19T09:40:25.886Z,45.31
2023-04-19T09:48:10.054Z,45.50
2023-04-19T09:51:00.242Z,45.30
2023-04-19T09:53:37.150Z,45.51
2023-04-19T09:56:06.129Z,45.36
2023-04-19T10:01:14.386Z,45.36
2023-04-19T10:03:47.675Z,45.53
2023-04-19T10:06:40.032Z,45.35
2023-04-19T10:09:11.565Z,45.64
2023-04-19T10:11:39.254Z,45.28
2023-04-19T10:14:09.174Z,45.58
2023-04-19T10:16:37.680Z,45.60
2023-04-19T10:19:09.909Z,45.50
2023-04-19T10:21:38.222Z,45.55
2023-04-19T10:24:05.973Z,45.59
2023-04-19T10:27:11.420Z,45.50
2023-04-19T10:29:58.206Z,45.54
2023-04-19T10:32:30.658Z,45.44
2023-04-19T10:35:07.972Z,45.46
2023-04-19T10:37:35.214Z,45.51
2023-04-19T10:40:02.533Z,45.39
2023-04-19T10:43:11.373Z,45.56
2023-04-19T10:45:38.805Z,45.52
2023-04-19T10:48:06.125Z,45.54
2023-04-19T10:51:03.381Z,45.36
2023-04-19T10:53:49.501Z,45.30
2023-04-19T10:56:21.859Z,45.30
2023-04-19T10:59:13.079Z,45.38
2023-04-19T11:01:48.385Z,45.39
2023-04-19T11:04:16.367Z,45.39
2023-04-19T11:06:52.774Z,45.23
2023-04-19T11:09:27.269Z,45.22
2023-04-19T11:11:58.080Z,45.22
2023-04-19T11:14:26.368Z,45.34
2023-04-19T11:16:53.705Z,45.03
2023-04-19T11:19:20.948Z,42.45
2023-04-19T11:21:48.733Z,40.49
2023-04-19T11:24:18.756Z,38.53
2023-04-19T11:26:47.282Z,37.99
2023-04-19T11:29:15.098Z,37.67
2023-04-19T11:31:47.734Z,36.79
2023-04-19T11:34:15.374Z,36.48
2023-04-19T11:36:52.577Z,35.98
2023-04-19T11:39:19.890Z,36.68
2023-04-19T11:41:49.759Z,37.36
2023-04-19T11:44:20.525Z,37.66
2023-04-19T11:47:05.384Z,37.80
2023-04-19T11:49:33.957Z,38.37
2023-04-19T11:52:05.545Z,37.70
2023-04-19T11:54:33.710Z,38.02
2023-04-19T11:57:03.455Z,38.61
2023-04-19T11:59:32.233Z,39.11
2023-04-19T12:02:12.540Z,38.30
2023-04-19T12:04:43.419Z,38.16
2023-04-19T12:07:11.174Z,37.79
2023-04-19T12:09:39.918Z,37.98
2023-04-19T12:12:07.148Z,37.84
2023-04-19T12:14:34.364Z,38.46
2023-04-19T12:17:14.423Z,38.96
2023-04-19T12:19:48.136Z,39.12
2023-04-19T12:22:24.146Z,39.23
2023-04-19T12:24:55.975Z,39.80
2023-04-19T12:27:25.725Z,39.88
2023-04-19T12:29:53.022Z,39.99
2023-04-19T12:32:20.688Z,40.21
2023-04-19T12:34:47.978Z,40.38
2023-04-19T12:37:15.185Z,40.41
2023-04-19T12:39:42.422Z,40.75
2023-04-19T12:42:09.593Z,40.83
2023-04-19T12:44:36.817Z,40.98
2023-04-19T12:47:04.059Z,41.04
2023-04-19T12:49:31.706Z,41.13
2023-04-19T12:51:58.974Z,41.12
2023-04-19T12:54:26.204Z,41.22
2023-04-19T12:56:53.908Z,41.41
2023-04-19T12:59:22.112Z,41.45
2023-04-19T13:01:49.747Z,41.53
2023-04-19T13:04:17.431Z,41.46
2023-04-19T13:06:45.588Z,41.65
2023-04-19T13:09:14.988Z,41.58
2023-04-19T13:11:42.602Z,41.70
2023-04-19T13:14:09.879Z,41.66
2023-04-19T13:16:38.568Z,41.89
2023-04-19T13:19:06.181Z,41.83
2023-04-19T13:21:33.411Z,42.08
2023-04-19T13:24:00.602Z,41.93
2023-04-19T13:26:27.906Z,41.55
2023-04-19T13:28:55.139Z,41.79
2023-04-19T13:31:22.366Z,41.63
2023-04-19T13:33:49.573Z,41.53
2023-04-19T13:36:16.879Z,41.29
2023-04-19T13:38:44.206Z,41.24
2023-04-19T13:41:11.646Z,41.47
2023-04-19T13:43:39.033Z,41.28
2023-04-19T13:46:06.605Z,41.52
2023-04-19T13:48:33.856Z,41.54
2023-04-19T13:51:01.093Z,41.75
2023-04-19T13:53:29.274Z,41.67
2023-04-19T13:55:56.766Z,41.84
2023-04-19T13:58:26.969Z,41.79
2023-04-19T14:00:54.642Z,41.76
2023-04-19T14:03:23.244Z,41.90
2023-04-19T14:05:50.891Z,41.86
2023-04-19T14:08:18.272Z,42.00
2023-04-19T14:10:45.780Z,42.30
2023-04-19T14:13:13.167Z,42.16
2023-04-19T14:15:40.535Z,42.19
2023-04-19T14:18:07.879Z,42.49
2023-04-19T14:20:35.389Z,42.33
2023-04-19T14:23:02.834Z,42.34
2023-04-19T14:25:30.146Z,42.51
2023-04-19T14:27:57.686Z,42.53
2023-04-19T14:30:27.204Z,42.45
2023-04-19T14:32:55.163Z,42.71
2023-04-19T14:35:22.492Z,42.67
2023-04-19T14:37:49.780Z,42.66
2023-04-19T14:40:18.039Z,42.89
2023-04-19T14:42:45.318Z,42.75
2023-04-19T14:45:12.544Z,42.77
2023-04-19T14:47:39.777Z,43.03
2023-04-19T14:50:07.585Z,42.81
2023-04-19T14:52:34.865Z,42.94
2023-04-19T14:55:02.206Z,42.91
2023-04-19T14:57:29.526Z,43.12
2023-04-19T14:59:57.954Z,42.75
2023-04-19T15:02:55.971Z,42.80
2023-04-19T15:05:25.544Z,42.79
2023-04-19T15:07:53.046Z,42.99
2023-04-19T15:10:20.320Z,42.89
2023-04-19T15:12:47.507Z,42.99
2023-04-19T15:15:14.769Z,42.94
2023-04-19T15:17:42.696Z,43.13
2023-04-19T15:20:10.084Z,43.20
2023-04-19T15:22:37.646Z,43.31
2023-04-19T15:25:05.108Z,43.21
2023-04-19T15:27:32.444Z,43.33
2023-04-19T15:29:59.712Z,43.20
2023-04-19T15:32:27.475Z,43.37
2023-04-19T15:34:54.884Z,43.32
2023-04-19T15:37:22.074Z,43.32
2023-04-19T15:39:50.260Z,43.42
2023-04-19T15:42:17.567Z,43.49
2023-04-19T15:44:45.115Z,43.59
2023-04-19T15:47:12.580Z,43.64
2023-04-19T15:49:40.637Z,43.48
2023-04-19T15:52:08.898Z,43.50
2023-04-19T15:54:37.719Z,43.82
2023-04-19T15:57:05.080Z,43.45
2023-04-19T15:59:32.609Z,43.47
2023-04-19T16:02:00.120Z,43.63
2023-04-19T16:04:27.557Z,43.51
2023-04-19T16:06:55.659Z,43.51
2023-04-19T16:09:23.007Z,43.26
2023-04-19T16:11:50.809Z,43.61
2023-04-19T16:14:18.248Z,43.47
2023-04-19T16:16:45.738Z,43.67
2023-04-19T16:19:13.151Z,43.73
2023-04-19T16:21:40.604Z,43.64
2023-04-19T16:24:08.162Z,43.60
2023-04-19T16:26:35.741Z,43.79
2023-04-19T16:29:03.067Z,43.77
2023-04-19T16:31:30.786Z,43.80
2023-04-19T16:33:58.278Z,43.76
2023-04-19T16:36:25.738Z,43.72
2023-04-19T16:38:53.234Z,43.69
2023-04-19T16:41:20.707Z,43.81
2023-04-19T16:43:47.947Z,43.66
2023-04-19T16:46:15.414Z,43.86
2023-04-19T16:48:42.955Z,43.82
2023-04-19T16:51:10.112Z,43.81
2023-04-19T16:53:37.350Z,43.75
2023-04-19T16:56:04.658Z,43.73
2023-04-19T16:58:31.994Z,43.92
2023-04-19T17:00:59.210Z,43.99
2023-04-19T17:03:28.464Z,44.16
2023-04-19T17:05:56.347Z,44.01
2023-04-19T17:08:23.722Z,43.96
2023-04-19T17:10:51.007Z,44.22
2023-04-19T17:13:18.589Z,44.14
2023-04-19T17:15:46.048Z,44.14
2023-04-19T17:18:13.400Z,44.28
2023-04-19T17:20:40.770Z,44.11
2023-04-19T17:23:08.023Z,44.36
2023-04-19T17:25:35.262Z,44.03
2023-04-19T17:28:02.664Z,44.19
2023-04-19T17:30:30.086Z,44.20
2023-04-19T17:32:57.570Z,44.30
2023-04-19T17:35:26.163Z,44.12
2023-04-19T17:37:53.399Z,44.41
2023-04-19T17:40:20.876Z,44.20
2023-04-19T17:42:48.050Z,44.21
2023-04-19T17:45:16.506Z,44.12
2023-04-19T17:47:44.376Z,44.25
2023-04-19T17:50:13.070Z,44.24
2023-04-19T17:52:40.802Z,44.28
2023-04-19T17:55:08.614Z,44.17
2023-04-19T17:57:35.886Z,44.11
2023-04-19T18:00:06.864Z,44.32
2023-04-19T18:02:35.048Z,44.21
2023-04-19T18:05:02.745Z,44.28
2023-04-19T18:07:30.216Z,44.43
2023-04-19T18:09:57.428Z,44.24
2023-04-19T18:12:24.930Z,44.23
2023-04-19T18:14:52.176Z,44.72
2023-04-19T18:17:19.557Z,44.55
2023-04-19T18:19:47.042Z,44.73
2023-04-19T18:22:14.680Z,44.86
2023-04-19T18:24:43.724Z,44.77
2023-04-19T18:27:10.944Z,45.00
2023-04-19T18:29:38.401Z,45.11
2023-04-19T18:32:06.267Z,45.11
2023-04-19T18:34:33.496Z,45.04
2023-04-19T18:37:02.834Z,45.24
2023-04-19T18:39:30.029Z,45.25
2023-04-19T18:41:58.236Z,45.34
2023-04-19T18:44:49.509Z,45.35
2023-04-19T18:47:13.055Z,45.42
2023-04-19T18:49:40.461Z,45.53
2023-04-19T18:52:07.857Z,45.75
2023-04-19T18:54:35.200Z,45.50
2023-04-19T18:57:19.065Z,45.61
2023-04-19T18:59:49.412Z,45.74
2023-04-19T19:02:16.853Z,45.62
2023-04-19T19:07:34.132Z,45.42
2023-04-19T19:10:18.398Z,45.70
2023-04-19T19:12:48.759Z,45.37
2023-04-19T19:15:16.372Z,45.19
2023-04-19T19:17:48.555Z,45.15
2023-04-19T19:20:16.970Z,45.12
2023-04-19T19:22:45.427Z,45.25
2023-04-19T19:25:13.258Z,45.02
2023-04-19T19:27:40.666Z,45.08
2023-04-19T19:30:08.794Z,45.17
2023-04-19T19:32:36.197Z,45.15
2023-04-19T19:35:06.405Z,45.17
2023-04-19T19:37:36.841Z,45.22
2023-04-19T19:40:10.768Z,45.12
2023-04-19T19:42:41.657Z,45.17
2023-04-19T19:45:09.483Z,45.30
2023-04-19T19:47:43.154Z,45.23
2023-04-19T19:51:01.035Z,45.26
2023-04-19T19:53:01.521Z,45.26
2023-04-19T19:55:30.087Z,45.19
2023-04-19T20:02:59.027Z,45.01
2023-04-19T20:05:27.532Z,45.28
2023-04-19T20:08:10.181Z,45.69
2023-04-19T20:10:39.341Z,45.49
2023-04-19T20:13:06.748Z,45.36
2023-04-19T20:15:37.819Z,45.34
2023-04-19T20:18:05.620Z,44.58
2023-04-19T20:20:33.105Z,45.12
2023-04-19T20:23:00.657Z,45.26
2023-04-19T20:25:28.103Z,45.09
2023-04-19T20:27:56.512Z,45.13
2023-04-19T20:30:23.890Z,45.15
2023-04-19T20:32:51.316Z,45.12
2023-04-19T20:35:19.026Z,45.20
2023-04-19T20:37:47.460Z,45.06
2023-04-19T20:40:16.265Z,45.11
2023-04-19T20:42:44.806Z,45.21
2023-04-19T20:45:14.147Z,45.23
2023-04-19T20:47:42.357Z,45.11
2023-04-19T20:50:10.446Z,44.93
2023-04-19T20:52:37.793Z,45.21
2023-04-19T20:55:05.554Z,45.02
2023-04-19T20:57:32.968Z,45.01
2023-04-19T21:00:00.701Z,45.26
2023-04-19T21:02:28.618Z,45.20
2023-04-19T21:04:56.009Z,45.06
2023-04-19T21:07:23.416Z,45.20
2023-04-19T21:09:50.841Z,45.28
2023-04-19T21:12:18.519Z,45.36
2023-04-19T21:14:49.284Z,45.48
2023-04-19T21:17:16.928Z,45.83
2023-04-19T21:19:44.173Z,45.92
2023-04-19T21:22:11.857Z,45.87
2023-04-19T21:24:39.357Z,45.79
2023-04-19T21:27:07.700Z,46.10
2023-04-19T21:29:35.201Z,45.91
2023-04-19T21:32:02.858Z,46.00
2023-04-19T21:34:31.020Z,46.15
2023-04-19T21:36:58.238Z,46.15
2023-04-19T21:39:25.593Z,46.02
2023-04-19T21:41:52.796Z,46.04
2023-04-19T21:44:20.513Z,46.12
2023-04-19T21:46:48.525Z,46.17
2023-04-19T21:49:15.911Z,46.26
2023-04-19T21:51:43.558Z,46.35
2023-04-19T21:54:12.800Z,46.17
2023-04-19T21:56:45.090Z,46.49
2023-04-19T21:59:15.339Z,46.34
2023-04-19T22:01:42.927Z,46.34
2023-04-19T22:04:11.957Z,46.27
2023-04-19T22:06:39.345Z,46.21
2023-04-19T22:09:06.521Z,46.18
2023-04-19T22:11:36.459Z,46.24
2023-04-19T22:14:03.880Z,46.21
2023-04-19T22:16:32.713Z,46.32
2023-04-19T22:19:01.284Z,46.12
2023-04-19T22:21:28.644Z,46.45
2023-04-19T22:23:55.837Z,46.47
2023-04-19T22:26:23.118Z,46.17
2023-04-19T22:28:50.764Z,46.19
2023-04-19T22:31:18.237Z,46.26
2023-04-19T22:33:46.108Z,46.22
2023-04-19T22:36:13.496Z,46.18
2023-04-19T22:38:40.694Z,46.37
2023-04-19T22:41:07.901Z,46.44
2023-04-19T22:43:35.193Z,46.18
2023-04-19T22:46:02.412Z,46.24
2023-04-19T22:48:30.237Z,46.30
2023-04-19T22:50:57.423Z,46.81
2023-04-19T22:53:24.790Z,46.88
2023-04-19T22:55:52.485Z,46.80
2023-04-19T22:58:20.112Z,46.73
2023-04-19T23:00:47.375Z,46.75
2023-04-19T23:03:14.612Z,46.45
2023-04-19T23:05:41.886Z,46.68
2023-04-19T23:08:09.400Z,46.58
2023-04-19T23:10:39.640Z,46.63
2023-04-19T23:13:06.829Z,46.80
2023-04-19T23:15:34.413Z,46.51
2023-04-19T23:18:02.295Z,46.70
2023-04-19T23:20:30.236Z,46.28
2023-04-19T23:22:57.832Z,46.70
2023-04-19T23:25:25.595Z,46.43
2023-04-19T23:27:52.942Z,46.52
2023-04-19T23:30:20.621Z,46.49
2023-04-19T23:32:47.898Z,46.31
2023-04-19T23:35:15.285Z,46.69
2023-04-19T23:37:42.507Z,46.51
2023-04-19T23:40:10.384Z,46.45
2023-04-19T23:42:38.424Z,46.54
2023-04-19T23:45:06.666Z,46.43
2023-04-19T23:47:34.237Z,46.39
2023-04-19T23:50:01.699Z,46.46
2023-04-19T23:52:28.940Z,46.38
2023-04-19T23:54:56.092Z,46.48
2023-04-19T23:57:23.358Z,46.34
2023-04-19T23:59:50.856Z,46.40
